createdAt,value
2023-01-11T00:01:03.881Z,4.70
2023-01-11T00:02:37.136Z,4.70
2023-01-11T00:04:11.424Z,4.70
2023-01-11T00:05:44.344Z,4.70
2023-01-11T00:07:17.299Z,4.70
2023-01-11T00:08:49.345Z,4.20
2023-01-11T00:10:22.652Z,4.70
2023-01-11T00:11:55.830Z,4.00
2023-01-11T00:13:32.420Z,4.70
2023-01-11T00:15:05.497Z,4.70
2023-01-11T00:16:38.889Z,4.80
2023-01-11T00:18:12.113Z,4.70
2023-01-11T00:19:47.123Z,4.70
2023-01-11T00:21:21.437Z,4.80
2023-01-11T00:22:54.480Z,4.80
2023-01-11T00:24:27.450Z,4.80
2023-01-11T00:26:00.555Z,4.80
2023-01-11T00:27:33.846Z,4.80
2023-01-11T00:29:06.767Z,4.80
2023-01-11T00:30:39.841Z,4.90
2023-01-11T00:32:12.981Z,4.40
2023-01-11T00:33:46.008Z,4.80
2023-01-11T00:35:20.478Z,4.90
2023-01-11T00:37:55.754Z,4.90
2023-01-11T00:39:28.850Z,4.90
2023-01-11T00:41:22.620Z,4.90
2023-01-11T00:43:14.703Z,4.90
2023-01-11T00:45:05.200Z,5.00
2023-01-11T00:46:55.794Z,5.60
2023-01-11T00:48:28.833Z,4.90
2023-01-11T00:50:01.983Z,4.90
2023-01-11T00:51:36.239Z,4.90
2023-01-11T00:53:10.479Z,5.00
2023-01-11T00:54:43.771Z,4.90
2023-01-11T00:56:15.791Z,4.90
2023-01-11T00:57:48.712Z,4.90
2023-01-11T00:59:21.702Z,4.90
2023-01-11T01:00:54.659Z,4.90
2023-01-11T01:02:29.636Z,5.00
2023-01-11T01:04:03.040Z,4.90
2023-01-11T01:05:38.205Z,4.90
2023-01-11T01:07:11.732Z,4.90
2023-01-11T01:09:16.627Z,4.90
2023-01-11T01:10:52.129Z,4.90
2023-01-11T01:12:39.075Z,4.80
2023-01-11T01:14:28.387Z,4.80
2023-01-11T01:16:01.558Z,4.70
2023-01-11T01:17:33.577Z,4.70
2023-01-11T01:19:10.248Z,4.70
2023-01-11T01:20:43.350Z,4.80
2023-01-11T01:22:16.724Z,4.70
2023-01-11T01:23:56.147Z,4.70
2023-01-11T01:25:29.134Z,4.70
2023-01-11T01:27:02.107Z,4.70
2023-01-11T01:28:35.056Z,4.70
2023-01-11T01:30:10.332Z,4.70
2023-01-11T01:31:43.505Z,4.70
2023-01-11T01:33:16.628Z,4.70
2023-01-11T01:34:49.612Z,4.80
2023-01-11T01:36:22.692Z,4.80
2023-01-11T01:37:57.077Z,4.80
2023-01-11T01:39:30.138Z,4.80
2023-01-11T01:41:02.137Z,4.70
2023-01-11T01:42:35.126Z,4.80
2023-01-11T01:44:41.742Z,4.70
2023-01-11T01:46:15.009Z,4.30
2023-01-11T01:47:52.392Z,4.70
2023-01-11T01:50:12.052Z,4.70
2023-01-11T01:51:50.472Z,3.80
2023-01-11T01:53:31.721Z,4.60
2023-01-11T01:55:09.772Z,4.60
2023-01-11T01:56:48.179Z,3.90
2023-01-11T01:58:26.355Z,4.60
2023-01-11T02:00:01.957Z,4.70
2023-01-11T02:01:50.341Z,4.70
2023-01-11T02:03:27.777Z,4.20
2023-01-11T02:05:00.251Z,4.70
2023-01-11T02:06:33.371Z,4.70
2023-01-11T02:08:11.225Z,4.70
2023-01-11T02:10:22.824Z,4.70
2023-01-11T02:11:57.561Z,4.70
2023-01-11T02:13:31.488Z,4.80
2023-01-11T02:15:04.750Z,4.80
2023-01-11T02:16:38.249Z,4.80
2023-01-11T02:18:13.608Z,4.80
2023-01-11T02:23:33.104Z,6.30
2023-01-11T02:25:30.747Z,4.80
2023-01-11T02:27:28.633Z,4.80
2023-01-11T02:29:42.332Z,4.80
2023-01-11T02:31:41.006Z,4.70
2023-01-11T02:33:18.701Z,4.70
2023-01-11T02:35:00.399Z,5.50
2023-01-11T02:36:46.718Z,4.80
2023-01-11T02:38:29.016Z,4.80
2023-01-11T02:42:24.856Z,4.80
2023-01-11T02:44:20.408Z,4.80
2023-01-11T02:46:03.184Z,4.90
2023-01-11T02:47:47.180Z,4.80
2023-01-11T02:49:27.971Z,4.80
2023-01-11T02:51:48.439Z,6.10
2023-01-11T02:53:28.779Z,4.90
2023-01-11T02:55:03.470Z,4.90
2023-01-11T02:56:41.271Z,4.90
2023-01-11T02:58:16.355Z,4.90
2023-01-11T03:00:08.910Z,4.90
2023-01-11T03:01:51.588Z,4.90
2023-01-11T03:03:27.811Z,5.00
2023-01-11T03:05:00.866Z,5.00
2023-01-11T03:06:35.744Z,4.90
2023-01-11T03:08:26.152Z,4.90
2023-01-11T03:10:09.840Z,4.90
2023-01-11T03:12:13.506Z,4.90
2023-01-11T03:14:01.052Z,4.90
2023-01-11T03:15:57.152Z,4.90
2023-01-11T03:17:45.566Z,4.90
2023-01-11T03:21:34.073Z,5.00
2023-01-11T03:23:14.778Z,5.80
2023-01-11T03:24:51.492Z,5.90
2023-01-11T03:26:32.428Z,5.00
2023-01-11T03:28:14.812Z,5.00
2023-01-11T03:30:16.787Z,5.00
2023-01-11T03:31:54.046Z,4.70
2023-01-11T03:33:33.883Z,5.00
2023-01-11T03:35:33.076Z,5.10
2023-01-11T03:37:11.076Z,5.00
2023-01-11T03:38:47.985Z,5.00
2023-01-11T03:40:25.220Z,5.00
2023-01-11T03:42:01.071Z,6.30
2023-01-11T03:43:36.537Z,5.10
2023-01-11T03:45:21.674Z,5.10
2023-01-11T03:47:10.444Z,5.20
2023-01-11T03:48:50.584Z,5.10
2023-01-11T03:50:24.394Z,5.10
2023-01-11T03:51:59.697Z,5.10
2023-01-11T03:55:29.670Z,5.50
2023-01-11T03:57:08.503Z,5.10
2023-01-11T03:58:41.560Z,5.20
2023-01-11T04:00:15.044Z,5.20
2023-01-11T04:01:47.102Z,6.30
2023-01-11T04:03:20.120Z,5.20
2023-01-11T04:05:31.693Z,5.20
2023-01-11T04:07:37.148Z,5.20
2023-01-11T04:09:10.104Z,5.20
2023-01-11T04:10:43.101Z,4.60
2023-01-11T04:12:16.003Z,5.30
2023-01-11T04:14:23.063Z,5.30
2023-01-11T04:15:55.026Z,5.20
2023-01-11T04:17:28.035Z,6.20
2023-01-11T04:19:02.851Z,5.30
2023-01-11T04:20:37.611Z,5.30
2023-01-11T04:22:09.585Z,5.30
2023-01-11T04:24:01.439Z,5.30
2023-01-11T04:25:47.502Z,5.40
2023-01-11T04:27:20.563Z,4.80
2023-01-11T04:28:54.522Z,7.40
2023-01-11T04:30:27.843Z,5.40
2023-01-11T04:32:00.931Z,5.50
2023-01-11T04:33:33.930Z,5.50
2023-01-11T04:35:06.773Z,5.90
2023-01-11T04:36:39.784Z,5.30
2023-01-11T04:38:12.864Z,5.50
2023-01-11T04:39:47.179Z,5.60
2023-01-11T04:41:37.380Z,5.50
2023-01-11T04:43:10.360Z,5.60
2023-01-11T04:44:58.681Z,7.50
2023-01-11T04:46:31.700Z,5.60
2023-01-11T04:48:04.793Z,5.60
2023-01-11T04:49:37.764Z,5.50
2023-01-11T04:51:11.248Z,5.50
2023-01-11T04:52:44.212Z,5.50
2023-01-11T04:55:03.565Z,5.50
2023-01-11T04:56:37.950Z,5.50
2023-01-11T04:58:10.952Z,5.50
2023-01-11T04:59:46.629Z,5.50
2023-01-11T05:01:20.379Z,5.50
2023-01-11T05:02:53.494Z,5.50
2023-01-11T05:04:26.555Z,5.50
2023-01-11T05:06:00.167Z,5.50
2023-01-11T05:07:33.242Z,5.50
2023-01-11T05:09:06.206Z,5.50
2023-01-11T05:10:38.302Z,5.50
2023-01-11T05:12:12.637Z,5.50
2023-01-11T05:14:15.485Z,5.50
2023-01-11T05:16:02.030Z,5.50
2023-01-11T05:17:34.957Z,5.50
2023-01-11T05:19:06.986Z,5.50
2023-01-11T05:20:39.920Z,5.50
2023-01-11T05:22:12.926Z,5.50
2023-01-11T05:23:45.421Z,5.60
2023-01-11T05:27:06.150Z,5.50
2023-01-11T05:28:40.709Z,5.60
2023-01-11T05:30:14.159Z,5.60
2023-01-11T05:31:46.510Z,5.60
2023-01-11T05:33:19.601Z,5.60
2023-01-11T05:34:56.319Z,5.60
2023-01-11T05:36:30.148Z,5.60
2023-01-11T05:38:03.050Z,5.60
2023-01-11T05:39:36.013Z,5.60
2023-01-11T05:41:11.161Z,5.60
2023-01-11T05:42:46.571Z,5.60
2023-01-11T05:46:35.957Z,5.70
2023-01-11T05:48:08.927Z,5.60
2023-01-11T05:49:41.790Z,5.00
2023-01-11T05:51:14.911Z,5.70
2023-01-11T05:52:48.006Z,5.60
2023-01-11T05:54:55.053Z,5.60
2023-01-11T05:56:27.664Z,5.60
2023-01-11T05:58:00.552Z,4.90
2023-01-11T05:59:34.807Z,5.70
2023-01-11T06:01:07.970Z,5.70
2023-01-11T06:02:41.115Z,6.70
2023-01-11T06:04:14.554Z,5.70
2023-01-11T06:05:47.600Z,5.70
2023-01-11T06:07:20.614Z,5.80
2023-01-11T06:08:53.654Z,5.80
2023-01-11T06:10:26.658Z,5.80
2023-01-11T06:11:59.687Z,5.80
2023-01-11T06:13:33.747Z,5.80
2023-01-11T06:15:09.623Z,5.80
2023-01-11T06:16:42.589Z,5.80
2023-01-11T06:18:15.637Z,5.90
2023-01-11T06:19:48.654Z,5.90
2023-01-11T06:21:22.247Z,5.90
2023-01-11T06:22:55.447Z,5.90
2023-01-11T06:24:28.402Z,5.90
2023-01-11T06:26:02.753Z,5.90
2023-01-11T06:27:35.680Z,5.90
2023-01-11T06:29:08.836Z,6.00
2023-01-11T06:30:43.293Z,6.00
2023-01-11T06:32:16.246Z,6.00
2023-01-11T06:34:57.306Z,6.00
2023-01-11T06:36:30.368Z,6.00
2023-01-11T06:38:03.292Z,6.00
2023-01-11T06:39:36.250Z,6.10
2023-01-11T06:41:09.856Z,6.10
2023-01-11T06:42:42.820Z,6.10
2023-01-11T06:44:15.786Z,6.10
2023-01-11T06:45:50.279Z,6.20
2023-01-11T06:47:23.296Z,6.20
2023-01-11T06:48:56.223Z,6.20
2023-01-11T06:50:29.163Z,6.20
2023-01-11T06:52:02.098Z,6.20
2023-01-11T06:53:35.314Z,6.20
2023-01-11T06:55:09.007Z,6.20
2023-01-11T06:56:41.996Z,6.30
2023-01-11T06:58:13.940Z,6.30
2023-01-11T06:59:46.894Z,6.00
2023-01-11T07:01:21.180Z,6.30
2023-01-11T07:02:54.366Z,6.30
2023-01-11T07:04:36.435Z,5.90
2023-01-11T07:06:09.488Z,6.30
2023-01-11T07:07:43.397Z,6.30
2023-01-11T07:09:16.328Z,6.30
2023-01-11T07:10:49.542Z,6.30
2023-01-11T07:12:22.619Z,6.30
2023-01-11T07:13:55.719Z,6.30
2023-01-11T07:15:29.283Z,6.30
2023-01-11T07:17:03.721Z,6.30
2023-01-11T07:18:37.400Z,6.40
2023-01-11T07:20:11.693Z,6.40
2023-01-11T07:21:44.821Z,6.40
2023-01-11T07:23:17.781Z,6.40
2023-01-11T07:25:03.342Z,6.40
2023-01-11T07:26:41.101Z,6.40
2023-01-11T07:28:14.062Z,6.40
2023-01-11T07:29:47.389Z,6.40
2023-01-11T07:31:20.387Z,6.40
2023-01-11T07:32:54.978Z,6.50
2023-01-11T07:34:27.952Z,6.50
2023-01-11T07:36:05.317Z,6.50
2023-01-11T07:37:41.456Z,6.50
2023-01-11T07:39:14.362Z,6.50
2023-01-11T07:40:47.430Z,6.50
2023-01-11T07:42:38.622Z,6.50
2023-01-11T07:44:10.689Z,6.50
2023-01-11T07:45:47.076Z,6.50
2023-01-11T07:47:20.239Z,6.50
2023-01-11T07:48:54.562Z,6.60
2023-01-11T07:50:27.583Z,6.60
2023-01-11T07:52:00.612Z,6.60
2023-01-11T07:53:33.661Z,6.70
2023-01-11T07:55:07.266Z,6.80
2023-01-11T07:56:40.231Z,5.50
2023-01-11T07:58:13.935Z,6.80
2023-01-11T07:59:46.980Z,6.80
2023-01-11T08:01:19.943Z,6.90
2023-01-11T08:02:53.780Z,6.90
2023-01-11T08:04:28.255Z,6.90
2023-01-11T08:06:14.494Z,7.00
2023-01-11T08:07:47.587Z,7.10
2023-01-11T08:09:20.581Z,7.60
2023-01-11T08:11:07.394Z,7.10
2023-01-11T08:13:02.145Z,7.20
2023-01-11T08:14:47.205Z,7.10
2023-01-11T08:16:20.165Z,6.60
2023-01-11T08:18:21.153Z,7.20
2023-01-11T08:19:56.128Z,6.70
2023-01-11T08:21:29.587Z,7.30
2023-01-11T08:23:03.964Z,7.30
2023-01-11T08:24:36.776Z,7.40
2023-01-11T08:26:09.778Z,7.40
2023-01-11T08:28:11.815Z,7.50
2023-01-11T08:29:45.088Z,7.40
2023-01-11T08:31:18.767Z,7.50
2023-01-11T08:32:51.737Z,7.60
2023-01-11T08:34:25.610Z,7.60
2023-01-11T08:36:07.548Z,7.60
2023-01-11T08:37:40.467Z,7.70
2023-01-11T08:39:13.705Z,7.70
2023-01-11T08:40:46.627Z,7.80
2023-01-11T08:42:19.752Z,7.80
2023-01-11T08:43:52.998Z,7.80
2023-01-11T08:45:26.279Z,8.50
2023-01-11T08:47:08.516Z,7.90
2023-01-11T08:48:41.430Z,8.00
2023-01-11T08:50:16.215Z,8.00
2023-01-11T08:51:50.515Z,8.70
2023-01-11T08:53:23.441Z,8.10
2023-01-11T08:54:56.638Z,8.10
2023-01-11T08:56:29.559Z,8.20
2023-01-11T08:58:02.597Z,8.30
2023-01-11T08:59:35.542Z,8.30
2023-01-11T09:01:09.625Z,8.30
2023-01-11T09:02:42.606Z,8.30
2023-01-11T09:04:24.612Z,8.30
2023-01-11T09:06:04.326Z,9.10
2023-01-11T09:07:38.767Z,8.30
2023-01-11T09:09:11.716Z,8.30
2023-01-11T09:10:44.657Z,8.30
2023-01-11T09:12:17.708Z,8.30
2023-01-11T09:13:50.767Z,8.30
2023-01-11T09:15:23.933Z,8.30
2023-01-11T09:16:57.695Z,8.30
2023-01-11T09:18:30.617Z,8.30
2023-01-11T09:20:03.777Z,8.30
2023-01-11T09:21:36.928Z,8.30
2023-01-11T09:23:11.306Z,8.30
2023-01-11T09:24:44.231Z,8.40
2023-01-11T09:26:32.658Z,8.40
2023-01-11T09:28:05.871Z,8.40
2023-01-11T09:29:39.023Z,8.40
2023-01-11T09:31:12.141Z,8.40
2023-01-11T09:32:46.157Z,8.40
2023-01-11T09:34:20.882Z,8.50
2023-01-11T09:36:09.315Z,8.50
2023-01-11T09:37:45.216Z,8.60
2023-01-11T09:39:22.483Z,8.60
2023-01-11T09:41:00.458Z,9.10
2023-01-11T09:42:37.530Z,8.70
2023-01-11T09:44:18.360Z,8.70
2023-01-11T09:46:02.684Z,8.70
2023-01-11T09:47:41.411Z,8.70
2023-01-11T09:49:20.235Z,8.70
2023-01-11T09:51:02.672Z,8.80
2023-01-11T09:52:40.246Z,8.90
2023-01-11T09:54:19.108Z,8.90
2023-01-11T09:56:08.371Z,8.70
2023-01-11T09:57:54.981Z,9.00
2023-01-11T09:59:34.974Z,9.10
2023-01-11T10:01:15.952Z,9.10
2023-01-11T10:03:04.780Z,9.10
2023-01-11T10:05:02.055Z,9.00
2023-01-11T10:06:42.801Z,9.10
2023-01-11T10:18:23.801Z,9.50
2023-01-11T10:18:25.376Z,9.60
2023-01-11T10:19:32.080Z,9.60
2023-01-11T10:21:26.550Z,9.60
2023-01-11T10:23:06.312Z,9.60
2023-01-11T10:24:43.222Z,9.70
2023-01-11T10:26:39.932Z,8.30
2023-01-11T10:28:23.138Z,9.80
2023-01-11T10:30:10.544Z,9.70
2023-01-11T10:32:06.328Z,9.90
2023-01-11T10:34:05.052Z,10.00
2023-01-11T10:38:42.666Z,10.20
2023-01-11T10:40:39.900Z,10.30
2023-01-11T10:42:21.249Z,10.00
2023-01-11T10:44:05.684Z,10.30
2023-01-11T10:45:43.381Z,10.40
2023-01-11T10:47:23.336Z,10.30
2023-01-11T10:49:04.102Z,10.30
2023-01-11T10:50:42.778Z,10.30
2023-01-11T10:52:25.717Z,10.30
2023-01-11T10:54:12.428Z,10.30
2023-01-11T10:56:03.199Z,10.10
2023-01-11T10:58:00.603Z,10.20
2023-01-11T11:00:04.518Z,10.20
2023-01-11T11:01:51.510Z,9.50
2023-01-11T11:03:45.781Z,10.20
2023-01-11T11:05:29.096Z,10.20
2023-01-11T11:07:11.322Z,10.20
2023-01-11T11:08:49.677Z,10.10
2023-01-11T11:10:29.579Z,10.20
2023-01-11T11:12:09.303Z,10.20
2023-01-11T11:13:53.625Z,10.20
2023-01-11T11:15:37.071Z,10.20
2023-01-11T11:17:18.278Z,10.30
2023-01-11T11:18:52.427Z,10.40
2023-01-11T11:20:30.077Z,10.40
2023-01-11T11:22:03.270Z,10.50
2023-01-11T11:23:36.809Z,10.50
2023-01-11T11:25:18.401Z,10.50
2023-01-11T11:27:00.342Z,10.30
2023-01-11T11:28:34.384Z,10.40
2023-01-11T11:30:12.432Z,10.30
2023-01-11T11:31:47.475Z,10.30
2023-01-11T11:33:23.906Z,9.00
2023-01-11T11:34:57.026Z,9.90
2023-01-11T11:36:42.727Z,9.90
2023-01-11T11:38:24.110Z,10.40
2023-01-11T11:39:57.855Z,9.90
2023-01-11T11:41:47.840Z,9.80
2023-01-11T11:43:23.420Z,10.40
2023-01-11T11:45:17.101Z,9.80
2023-01-11T11:47:03.364Z,9.60
2023-01-11T11:48:36.471Z,9.70
2023-01-11T11:50:43.798Z,9.70
2023-01-11T11:52:19.152Z,9.70
2023-01-11T11:53:55.774Z,10.60
2023-01-11T11:55:30.885Z,9.70
2023-01-11T11:57:15.538Z,9.70
2023-01-11T11:58:49.140Z,9.60
2023-01-11T12:00:25.795Z,9.30
2023-01-11T12:02:03.132Z,9.60
2023-01-11T12:03:36.447Z,9.60
2023-01-11T12:05:11.857Z,11.00
2023-01-11T12:06:46.522Z,9.70
2023-01-11T12:08:22.602Z,9.00
2023-01-11T12:10:00.885Z,9.60
2023-01-11T12:11:36.341Z,9.60
2023-01-11T12:13:28.650Z,9.50
2023-01-11T12:15:27.114Z,9.50
2023-01-11T12:17:02.171Z,9.50
2023-01-11T12:18:41.532Z,9.10
2023-01-11T12:20:35.882Z,9.50
2023-01-11T12:22:13.263Z,9.40
2023-01-11T12:23:46.542Z,9.40
2023-01-11T12:25:24.252Z,9.50
2023-01-11T12:27:05.476Z,9.60
2023-01-11T12:29:10.537Z,9.40
2023-01-11T12:31:08.576Z,9.40
2023-01-11T12:33:11.479Z,10.00
2023-01-11T12:35:07.490Z,9.40
2023-01-11T12:36:49.545Z,9.50
2023-01-11T12:38:39.252Z,9.50
2023-01-11T12:40:19.235Z,9.50
2023-01-11T12:42:04.566Z,9.50
2023-01-11T12:43:55.280Z,9.50
2023-01-11T12:45:36.915Z,9.50
2023-01-11T12:47:33.962Z,9.40
2023-01-11T12:49:22.429Z,9.40
2023-01-11T12:51:34.215Z,9.40
2023-01-11T12:53:39.828Z,9.30
2023-01-11T12:55:29.198Z,9.30
2023-01-11T12:57:15.672Z,9.30
2023-01-11T12:58:54.227Z,9.20
2023-01-11T13:03:36.710Z,9.20
2023-01-11T13:05:23.652Z,9.10
2023-01-11T13:07:07.375Z,9.10
2023-01-11T13:09:00.234Z,9.10
2023-01-11T13:11:04.672Z,8.00
2023-01-11T13:12:45.706Z,9.10
2023-01-11T13:14:43.003Z,9.00
2023-01-11T13:16:25.630Z,9.00
2023-01-11T13:18:04.450Z,9.00
2023-01-11T13:19:46.148Z,9.00
2023-01-11T13:21:43.349Z,9.00
2023-01-11T13:23:21.304Z,9.00
2023-01-11T13:24:54.254Z,9.00
2023-01-11T13:26:31.541Z,8.90
2023-01-11T13:28:24.058Z,9.00
2023-01-11T13:29:59.444Z,8.90
2023-01-11T13:31:34.460Z,9.00
2023-01-11T13:33:14.013Z,9.00
2023-01-11T13:34:51.184Z,9.00
2023-01-11T13:36:42.127Z,9.00
2023-01-11T13:38:24.811Z,9.00
2023-01-11T13:40:04.664Z,9.00
2023-01-11T13:41:42.492Z,9.00
2023-01-11T13:43:21.107Z,9.00
2023-01-11T13:44:59.784Z,9.00
2023-01-11T13:46:50.172Z,9.00
2023-01-11T13:48:28.459Z,9.00
2023-01-11T13:50:05.844Z,9.00
2023-01-11T13:51:43.843Z,8.50
2023-01-11T13:53:23.595Z,9.10
2023-01-11T13:55:04.179Z,9.10
2023-01-11T13:56:42.510Z,9.00
2023-01-11T13:58:23.286Z,9.10
2023-01-11T14:00:02.570Z,8.40
2023-01-11T14:01:47.924Z,9.20
2023-01-11T14:03:29.332Z,9.10
2023-01-11T14:05:11.581Z,9.20
2023-01-11T14:07:03.074Z,9.20
2023-01-11T14:09:17.657Z,9.20
2023-01-11T14:11:14.608Z,9.20
2023-01-11T14:13:05.040Z,9.20
2023-01-11T14:15:01.921Z,9.20
2023-01-11T14:16:48.119Z,9.10
2023-01-11T14:18:29.475Z,8.40
2023-01-11T14:20:15.433Z,9.00
2023-01-11T14:22:02.117Z,8.40
2023-01-11T14:23:45.027Z,8.70
2023-01-11T14:25:23.502Z,8.70
2023-01-11T14:27:11.414Z,9.00
2023-01-11T14:29:02.431Z,8.90
2023-01-11T14:31:03.454Z,9.50
2023-01-11T14:33:22.334Z,8.80
2023-01-11T14:35:45.298Z,8.80
2023-01-11T14:37:33.683Z,8.70
2023-01-11T14:39:19.008Z,8.70
2023-01-11T14:41:44.081Z,8.80
2023-01-11T14:43:34.306Z,8.80
2023-01-11T14:46:05.814Z,8.80
2023-01-11T14:48:11.387Z,8.80
2023-01-11T14:49:58.897Z,8.70
2023-01-11T14:51:39.146Z,9.40
2023-01-11T14:53:19.073Z,8.90
2023-01-11T14:54:55.306Z,8.50
2023-01-11T14:56:52.653Z,8.70
2023-01-11T14:58:27.937Z,8.70
2023-01-11T15:00:01.765Z,8.70
2023-01-11T15:02:12.183Z,8.70
2023-01-11T15:03:57.564Z,8.70
2023-01-11T15:07:39.004Z,8.30
2023-01-11T15:09:43.480Z,8.70
2023-01-11T15:11:36.134Z,8.70
2023-01-11T15:13:14.141Z,8.70
2023-01-11T15:14:49.257Z,8.70
2023-01-11T15:16:42.689Z,8.30
2023-01-11T15:18:19.945Z,8.70
2023-01-11T15:19:53.325Z,8.70
2023-01-11T15:21:28.096Z,8.70
2023-01-11T15:23:03.440Z,8.70
2023-01-11T15:24:42.865Z,8.70
2023-01-11T15:26:40.979Z,8.70
2023-01-11T15:28:41.754Z,8.70
2023-01-11T15:30:56.730Z,8.70
2023-01-11T15:32:31.762Z,8.70
2023-01-11T15:34:17.651Z,8.70
2023-01-11T15:36:04.060Z,8.70
2023-01-11T15:37:47.419Z,8.70
2023-01-11T15:39:28.833Z,9.20
2023-01-11T15:41:18.811Z,8.70
2023-01-11T15:43:26.315Z,8.70
2023-01-11T15:45:25.322Z,8.70
2023-01-11T15:47:22.333Z,8.70
2023-01-11T15:49:27.415Z,8.70
2023-01-11T15:51:38.210Z,8.70
2023-01-11T15:54:00.478Z,9.20
2023-01-11T15:56:06.681Z,8.70
2023-01-11T15:58:12.358Z,8.70
2023-01-11T16:00:18.197Z,8.70
2023-01-11T16:02:16.644Z,8.70
2023-01-11T16:04:02.875Z,8.70
2023-01-11T16:05:41.577Z,8.70
2023-01-11T16:07:29.451Z,8.70
2023-01-11T16:09:16.164Z,8.70
2023-01-11T16:11:01.670Z,8.70
2023-01-11T16:12:49.905Z,8.70
2023-01-11T16:14:56.716Z,8.70
2023-01-11T16:16:42.164Z,8.80
2023-01-11T16:18:23.602Z,8.80
2023-01-11T16:19:57.250Z,8.80
2023-01-11T16:21:33.843Z,8.80
2023-01-11T16:23:07.622Z,8.90
2023-01-11T16:24:46.287Z,8.90
2023-01-11T16:26:36.847Z,8.90
2023-01-11T16:28:17.075Z,8.90
2023-01-11T16:29:52.025Z,8.60
2023-01-11T16:31:26.523Z,9.00
2023-01-11T16:33:20.111Z,9.00
2023-01-11T16:34:53.606Z,9.00
2023-01-11T16:36:41.678Z,9.00
2023-01-11T16:38:18.991Z,9.00
2023-01-11T16:39:55.372Z,9.00
2023-01-11T16:41:33.281Z,9.00
2023-01-11T16:43:08.424Z,9.00
2023-01-11T16:44:46.950Z,9.00
2023-01-11T16:46:59.896Z,9.10
2023-01-11T16:48:34.181Z,9.00
2023-01-11T16:50:25.225Z,9.90
2023-01-11T16:51:59.928Z,9.00
2023-01-11T16:53:34.087Z,9.00
2023-01-11T16:55:32.611Z,8.40
2023-01-11T16:57:05.664Z,9.00
2023-01-11T16:58:40.295Z,9.10
2023-01-11T17:00:27.566Z,9.10
2023-01-11T17:02:03.509Z,9.00
2023-01-11T17:03:43.217Z,9.10
2023-01-11T17:05:19.888Z,9.10
2023-01-11T17:06:52.940Z,9.20
2023-01-11T17:08:28.641Z,9.10
2023-01-11T17:10:18.408Z,9.10
2023-01-11T17:11:53.038Z,9.10
2023-01-11T17:13:58.501Z,9.10
2023-01-11T17:15:37.201Z,9.10
2023-01-11T17:17:12.320Z,9.00
2023-01-11T17:18:47.046Z,8.30
2023-01-11T17:20:22.280Z,8.90
2023-01-11T17:21:58.153Z,9.70
2023-01-11T17:23:31.872Z,8.90
2023-01-11T17:25:07.299Z,8.80
2023-01-11T17:26:45.816Z,8.80
2023-01-11T17:28:20.806Z,8.90
2023-01-11T17:29:55.957Z,8.90
2023-01-11T17:31:32.083Z,8.90
2023-01-11T17:33:05.506Z,8.90
2023-01-11T17:34:40.122Z,8.90
2023-01-11T17:36:25.093Z,8.90
2023-01-11T17:38:00.545Z,8.80
2023-01-11T17:39:35.685Z,8.90
2023-01-11T17:41:30.723Z,8.80
2023-01-11T17:43:24.135Z,8.80
2023-01-11T17:45:15.298Z,8.80
2023-01-11T17:46:49.217Z,8.80
2023-01-11T17:48:23.838Z,8.80
2023-01-11T17:50:01.100Z,8.80
2023-01-11T17:51:35.955Z,8.80
2023-01-11T17:53:16.864Z,8.80
2023-01-11T17:55:01.385Z,10.00
2023-01-11T17:56:39.166Z,8.80
2023-01-11T17:58:19.228Z,8.80
2023-01-11T18:00:19.697Z,8.90
2023-01-11T18:01:54.823Z,8.80
2023-01-11T18:03:27.844Z,8.80
2023-01-11T18:05:03.418Z,8.70
2023-01-11T18:06:40.115Z,8.70
2023-01-11T18:08:21.147Z,8.70
2023-01-11T18:10:03.158Z,8.70
2023-01-11T18:11:38.345Z,8.70
2023-01-11T18:13:23.204Z,8.70
2023-01-11T18:14:59.233Z,8.70
2023-01-11T18:16:32.427Z,7.40
2023-01-11T18:18:25.666Z,8.70
2023-01-11T18:19:59.507Z,8.20
2023-01-11T18:21:41.188Z,8.70
2023-01-11T18:23:20.665Z,8.70
2023-01-11T18:24:55.187Z,8.70
2023-01-11T18:26:31.921Z,8.70
2023-01-11T18:28:26.317Z,8.70
2023-01-11T18:30:01.406Z,8.70
2023-01-11T18:31:34.420Z,8.70
2023-01-11T18:33:15.782Z,8.60
2023-01-11T18:34:51.988Z,8.70
2023-01-11T18:36:28.342Z,8.60
2023-01-11T18:38:02.704Z,7.80
2023-01-11T18:39:36.281Z,8.60
2023-01-11T18:41:39.517Z,8.60
2023-01-11T18:43:13.701Z,8.60
2023-01-11T18:44:49.407Z,8.60
2023-01-11T18:46:22.513Z,8.50
2023-01-11T18:47:55.516Z,8.50
2023-01-11T18:49:27.499Z,8.50
2023-01-11T18:51:00.565Z,8.50
2023-01-11T18:52:33.569Z,8.50
2023-01-11T18:54:10.525Z,8.70
2023-01-11T18:55:58.534Z,8.40
2023-01-11T18:57:31.717Z,8.40
2023-01-11T18:59:04.720Z,8.40
2023-01-11T19:00:38.110Z,8.40
2023-01-11T19:02:22.645Z,8.40
2023-01-11T19:03:55.621Z,8.40
2023-01-11T19:05:28.626Z,8.30
2023-01-11T19:07:01.886Z,7.80
2023-01-11T19:08:34.867Z,8.40
2023-01-11T19:10:10.794Z,7.80
2023-01-11T19:11:43.808Z,7.70
2023-01-11T19:13:19.190Z,8.40
2023-01-11T19:14:52.260Z,8.40
2023-01-11T19:16:25.321Z,8.30
2023-01-11T19:17:58.225Z,9.00
2023-01-11T19:19:31.545Z,8.30
2023-01-11T19:21:06.532Z,8.20
2023-01-11T19:22:39.517Z,8.60
2023-01-11T19:24:12.621Z,8.60
2023-01-11T19:25:46.934Z,8.10
2023-01-11T19:27:19.881Z,8.10
2023-01-11T19:28:52.771Z,8.10
2023-01-11T19:30:26.055Z,8.10
2023-01-11T19:32:23.649Z,7.90
2023-01-11T19:33:56.686Z,8.10
2023-01-11T19:35:29.720Z,8.10
2023-01-11T19:37:03.135Z,8.10
2023-01-11T19:38:36.151Z,8.10
2023-01-11T19:40:10.443Z,8.80
2023-01-11T19:41:59.874Z,8.10
2023-01-11T19:43:32.885Z,8.10
2023-01-11T19:45:07.088Z,7.40
2023-01-11T19:46:40.238Z,9.60
2023-01-11T19:48:13.344Z,8.00
2023-01-11T19:49:46.393Z,8.00
2023-01-11T19:51:47.047Z,8.00
2023-01-11T19:53:19.988Z,8.00
2023-01-11T19:54:54.823Z,8.00
2023-01-11T19:56:27.853Z,8.00
2023-01-11T19:58:02.695Z,7.90
2023-01-11T19:59:35.639Z,8.10
2023-01-11T20:01:24.124Z,7.90
2023-01-11T20:02:57.131Z,8.00
2023-01-11T20:04:30.133Z,8.00
2023-01-11T20:06:08.264Z,8.00
2023-01-11T20:07:41.179Z,8.00
2023-01-11T20:09:14.120Z,8.00
2023-01-11T20:11:06.075Z,7.90
2023-01-11T20:12:44.856Z,8.10
2023-01-11T20:14:19.257Z,8.20
2023-01-11T20:15:52.231Z,7.80
2023-01-11T20:17:25.288Z,7.90
2023-01-11T20:18:59.025Z,9.10
2023-01-11T20:20:31.976Z,8.00
2023-01-11T20:22:05.262Z,7.40
2023-01-11T20:23:38.369Z,7.90
2023-01-11T20:25:12.488Z,7.80
2023-01-11T20:26:46.444Z,7.80
2023-01-11T20:28:20.345Z,7.80
2023-01-11T20:29:54.670Z,7.80
2023-01-11T20:31:31.512Z,9.40
2023-01-11T20:33:09.264Z,7.80
2023-01-11T20:34:42.229Z,8.60
2023-01-11T20:36:17.533Z,7.80
2023-01-11T20:37:50.677Z,7.80
2023-01-11T20:39:24.128Z,7.80
2023-01-11T20:40:57.131Z,7.90
2023-01-11T20:42:31.322Z,7.90
2023-01-11T20:44:05.005Z,7.90
2023-01-11T20:45:39.598Z,7.90
2023-01-11T20:47:12.609Z,8.00
2023-01-11T20:48:48.901Z,8.00
2023-01-11T20:50:21.912Z,8.00
2023-01-11T20:51:54.827Z,7.90
2023-01-11T20:53:27.807Z,7.80
2023-01-11T20:55:00.744Z,7.90
2023-01-11T20:56:34.440Z,7.90
2023-01-11T20:58:07.428Z,7.90
2023-01-11T20:59:40.451Z,7.90
2023-01-11T21:01:15.657Z,8.00
2023-01-11T21:02:49.660Z,8.10
2023-01-11T21:04:22.625Z,8.10
2023-01-11T21:05:56.266Z,8.10
2023-01-11T21:07:29.188Z,8.00
2023-01-11T21:09:03.328Z,8.10
2023-01-11T21:10:36.243Z,8.10
2023-01-11T21:12:09.666Z,7.80
2023-01-11T21:13:42.943Z,7.20
2023-01-11T21:15:15.974Z,9.00
2023-01-11T21:16:50.633Z,8.10
2023-01-11T21:18:23.544Z,8.30
2023-01-11T21:19:56.460Z,9.30
2023-01-11T21:21:30.971Z,8.40
2023-01-11T21:23:03.942Z,8.30
2023-01-11T21:24:38.688Z,7.20
2023-01-11T21:26:12.810Z,8.30
2023-01-11T21:27:45.743Z,8.90
2023-01-11T21:29:18.665Z,8.30
2023-01-11T21:30:51.626Z,8.30
2023-01-11T21:32:25.919Z,8.30
2023-01-11T21:33:59.335Z,8.30
2023-01-11T21:35:32.108Z,8.20
2023-01-11T21:37:05.166Z,8.20
2023-01-11T21:38:39.372Z,8.10
2023-01-11T21:40:14.107Z,8.10
2023-01-11T21:41:59.783Z,9.20
2023-01-11T21:43:33.235Z,8.00
2023-01-11T21:45:06.560Z,7.90
2023-01-11T21:46:40.141Z,7.90
2023-01-11T21:48:14.471Z,8.20
2023-01-11T21:49:47.362Z,7.90
2023-01-11T21:51:20.335Z,7.90
2023-01-11T21:52:55.129Z,7.80
2023-01-11T21:54:28.052Z,7.70
2023-01-11T21:56:03.543Z,7.70
2023-01-11T21:57:36.580Z,7.70
2023-01-11T21:59:09.627Z,7.60
2023-01-11T22:00:42.532Z,7.60
2023-01-11T22:02:15.547Z,7.20
2023-01-11T22:03:49.949Z,7.40
2023-01-11T22:05:22.881Z,8.60
2023-01-11T22:06:58.665Z,7.70
2023-01-11T22:08:35.886Z,7.70
2023-01-11T22:10:09.808Z,7.70
2023-01-11T22:11:42.766Z,7.80
2023-01-11T22:13:15.663Z,7.90
2023-01-11T22:14:48.581Z,7.90
2023-01-11T22:16:21.829Z,7.90
2023-01-11T22:17:54.674Z,8.00
2023-01-11T22:19:28.957Z,8.10
2023-01-11T22:21:06.272Z,8.10
2023-01-11T22:22:39.402Z,8.10
2023-01-11T22:24:13.087Z,9.50
2023-01-11T22:25:46.030Z,7.90
2023-01-11T22:29:29.851Z,7.80
2023-01-11T22:31:06.200Z,7.60
2023-01-11T22:32:40.179Z,7.50
2023-01-11T22:34:14.381Z,7.40
2023-01-11T22:35:58.007Z,7.30
2023-01-11T22:37:30.946Z,7.30
2023-01-11T22:39:04.006Z,7.30